sensor_id;sensor_type;location;lat;lon;timestamp;temperature;humidity
3736;DHT22;1883;48.202;16.310;2022-10-16T00:03:52;12.70;32.90
3736;DHT22;1883;48.202;16.310;2022-10-16T00:06:21;12.60;32.80
3736;DHT22;1883;48.202;16.310;2022-10-16T00:08:48;12.70;32.90
3736;DHT22;1883;48.202;16.310;2022-10-16T00:11:17;12.60;32.90
3736;DHT22;1883;48.202;16.310;2022-10-16T00:27:22;12.50;32.90
3736;DHT22;1883;48.202;16.310;2022-10-16T00:29:49;12.60;32.90
3736;DHT22;1883;48.202;16.310;2022-10-16T00:32:17;12.50;32.90
3736;DHT22;1883;48.202;16.310;2022-10-16T00:34:44;12.60;32.90
3736;DHT22;1883;48.202;16.310;2022-10-16T00:37:12;12.60;32.90
3736;DHT22;1883;48.202;16.310;2022-10-16T00:39:39;12.50;32.80
3736;DHT22;1883;48.202;16.310;2022-10-16T00:42:06;12.40;32.80
3736;DHT22;1883;48.202;16.310;2022-10-16T00:44:50;12.60;33.00
3736;DHT22;1883;48.202;16.310;2022-10-16T00:47:21;12.50;33.00
3736;DHT22;1883;48.202;16.310;2022-10-16T00:49:51;12.60;33.10
3736;DHT22;1883;48.202;16.310;2022-10-16T00:52:20;12.60;33.00
3736;DHT22;1883;48.202;16.310;2022-10-16T00:54:47;12.60;33.00
3736;DHT22;1883;48.202;16.310;2022-10-16T00:57:16;12.60;33.00
3736;DHT22;1883;48.202;16.310;2022-10-16T00:59:43;12.60;33.10
3736;DHT22;1883;48.202;16.310;2022-10-16T01:02:13;12.60;33.10
3736;DHT22;1883;48.202;16.310;2022-10-16T01:04:43;12.50;33.10
3736;DHT22;1883;48.202;16.310;2022-10-16T01:07:14;12.60;33.20
3736;DHT22;1883;48.202;16.310;2022-10-16T01:09:50;12.60;33.20
3736;DHT22;1883;48.202;16.310;2022-10-16T01:12:26;12.50;33.10
3736;DHT22;1883;48.202;16.310;2022-10-16T01:14:59;12.50;33.10
3736;DHT22;1883;48.202;16.310;2022-10-16T01:17:36;12.60;33.20
3736;DHT22;1883;48.202;16.310;2022-10-16T01:20:10;12.50;33.20
3736;DHT22;1883;48.202;16.310;2022-10-16T01:22:50;12.50;33.20
3736;DHT22;1883;48.202;16.310;2022-10-16T01:25:31;12.50;33.20
3736;DHT22;1883;48.202;16.310;2022-10-16T01:28:06;12.40;33.10
3736;DHT22;1883;48.202;16.310;2022-10-16T01:30:36;12.50;33.30
3736;DHT22;1883;48.202;16.310;2022-10-16T01:33:16;12.40;33.30
3736;DHT22;1883;48.202;16.310;2022-10-16T01:36:01;12.50;33.30
3736;DHT22;1883;48.202;16.310;2022-10-16T01:38:31;12.40;33.30
3736;DHT22;1883;48.202;16.310;2022-10-16T01:41:07;12.40;33.30
3736;DHT22;1883;48.202;16.310;2022-10-16T01:43:40;12.30;33.30
3736;DHT22;1883;48.202;16.310;2022-10-16T01:46:08;12.40;33.40
3736;DHT22;1883;48.202;16.310;2022-10-16T01:48:35;12.40;33.40
3736;DHT22;1883;48.202;16.310;2022-10-16T01:51:05;12.30;33.40
3736;DHT22;1883;48.202;16.310;2022-10-16T01:53:33;12.40;33.40
3736;DHT22;1883;48.202;16.310;2022-10-16T01:56:02;12.30;33.40
3736;DHT22;1883;48.202;16.310;2022-10-16T01:58:34;12.30;33.40
3736;DHT22;1883;48.202;16.310;2022-10-16T02:01:04;12.30;33.50
3736;DHT22;1883;48.202;16.310;2022-10-16T02:03:34;12.30;33.50
3736;DHT22;1883;48.202;16.310;2022-10-16T02:06:03;12.30;33.50
3736;DHT22;1883;48.202;16.310;2022-10-16T02:08:31;12.30;33.50
3736;DHT22;1883;48.202;16.310;2022-10-16T02:10:58;12.30;33.60
3736;DHT22;1883;48.202;16.310;2022-10-16T02:13:30;12.30;33.60
3736;DHT22;1883;48.202;16.310;2022-10-16T02:16:36;12.30;33.70
3736;DHT22;1883;48.202;16.310;2022-10-16T02:19:30;12.40;33.70
3736;DHT22;1883;48.202;16.310;2022-10-16T02:21:58;12.30;33.70
3736;DHT22;1883;48.202;16.310;2022-10-16T02:24:30;12.40;33.80
3736;DHT22;1883;48.202;16.310;2022-10-16T02:27:05;12.40;33.80
3736;DHT22;1883;48.202;16.310;2022-10-16T02:29:38;12.40;33.80
3736;DHT22;1883;48.202;16.310;2022-10-16T02:35:26;12.30;33.80
3736;DHT22;1883;48.202;16.310;2022-10-16T03:10:09;12.30;33.90
3736;DHT22;1883;48.202;16.310;2022-10-16T03:12:36;12.20;33.90
3736;DHT22;1883;48.202;16.310;2022-10-16T03:15:04;12.20;33.90
3736;DHT22;1883;48.202;16.310;2022-10-16T03:17:32;12.20;33.90
3736;DHT22;1883;48.202;16.310;2022-10-16T03:20:00;12.20;33.90
3736;DHT22;1883;48.202;16.310;2022-10-16T03:22:27;12.00;33.80
3736;DHT22;1883;48.202;16.310;2022-10-16T03:24:54;12.00;33.90
3736;DHT22;1883;48.202;16.310;2022-10-16T03:27:58;12.00;33.90
3736;DHT22;1883;48.202;16.310;2022-10-16T03:30:25;12.00;33.90
3736;DHT22;1883;48.202;16.310;2022-10-16T03:32:52;11.90;33.80
3736;DHT22;1883;48.202;16.310;2022-10-16T03:35:19;11.90;33.80
3736;DHT22;1883;48.202;16.310;2022-10-16T03:37:47;11.80;33.80
3736;DHT22;1883;48.202;16.310;2022-10-16T03:40:14;11.90;33.80
3736;DHT22;1883;48.202;16.310;2022-10-16T03:42:42;11.80;33.90
3736;DHT22;1883;48.202;16.310;2022-10-16T03:47:46;11.90;34.00
3736;DHT22;1883;48.202;16.310;2022-10-16T03:50:13;11.90;33.90
3736;DHT22;1883;48.202;16.310;2022-10-16T03:52:41;11.80;33.90
3736;DHT22;1883;48.202;16.310;2022-10-16T03:55:08;11.80;33.90
3736;DHT22;1883;48.202;16.310;2022-10-16T03:57:35;11.90;33.90
3736;DHT22;1883;48.202;16.310;2022-10-16T04:00:04;11.90;33.90
3736;DHT22;1883;48.202;16.310;2022-10-16T04:56:07;11.60;34.10
3736;DHT22;1883;48.202;16.310;2022-10-16T04:58:47;11.60;34.10
3736;DHT22;1883;48.202;16.310;2022-10-16T05:01:48;11.60;34.20
3736;DHT22;1883;48.202;16.310;2022-10-16T05:04:30;11.70;34.20
3736;DHT22;1883;48.202;16.310;2022-10-16T05:07:03;11.60;34.10
3736;DHT22;1883;48.202;16.310;2022-10-16T05:09:51;11.50;34.10
3736;DHT22;1883;48.202;16.310;2022-10-16T06:43:47;12.20;34.00
3736;DHT22;1883;48.202;16.310;2022-10-16T06:46:30;12.20;33.90
3736;DHT22;1883;48.202;16.310;2022-10-16T06:49:31;12.10;33.90
3736;DHT22;1883;48.202;16.310;2022-10-16T06:52:13;12.00;33.80
3736;DHT22;1883;48.202;16.310;2022-10-16T06:55:10;12.00;33.80
3736;DHT22;1883;48.202;16.310;2022-10-16T06:58:01;12.00;33.90
3736;DHT22;1883;48.202;16.310;2022-10-16T07:40:43;12.70;33.70
3736;DHT22;1883;48.202;16.310;2022-10-16T07:43:29;12.60;33.60
3736;DHT22;1883;48.202;16.310;2022-10-16T07:46:12;12.40;33.60
3736;DHT22;1883;48.202;16.310;2022-10-16T07:48:58;12.40;33.70
3736;DHT22;1883;48.202;16.310;2022-10-16T07:51:41;12.40;33.70
3736;DHT22;1883;48.202;16.310;2022-10-16T07:54:30;12.40;33.70
3736;DHT22;1883;48.202;16.310;2022-10-16T23:01:33;13.00;43.80
3736;DHT22;1883;48.202;16.310;2022-10-16T23:04:01;13.00;43.20
3736;DHT22;1883;48.202;16.310;2022-10-16T23:06:28;13.00;43.40
3736;DHT22;1883;48.202;16.310;2022-10-16T23:08:57;13.00;43.60
3736;DHT22;1883;48.202;16.310;2022-10-16T23:11:26;12.90;43.50
3736;DHT22;1883;48.202;16.310;2022-10-16T23:13:53;12.90;43.60
3736;DHT22;1883;48.202;16.310;2022-10-16T23:52:39;12.70;43.20
3736;DHT22;1883;48.202;16.310;2022-10-16T23:55:06;12.60;43.70
3736;DHT22;1883;48.202;16.310;2022-10-16T23:57:33;12.50;42.90
